sensor_id;sensor_type;location;lat;lon;timestamp;P1;durP1;ratioP1;P2;durP2;ratioP2
12812;SDS011;6471;50.932;6.934;2023-10-08T00:01:53;5.50;;;3.07;;
12812;SDS011;6471;50.932;6.934;2023-10-08T00:04:20;4.87;;;3.20;;
12812;SDS011;6471;50.932;6.934;2023-10-08T00:06:47;4.87;;;3.00;;
12812;SDS011;6471;50.932;6.934;2023-10-08T00:09:14;4.10;;;2.77;;
12812;SDS011;6471;50.932;6.934;2023-10-08T00:11:40;5.33;;;2.97;;
12812;SDS011;6471;50.932;6.934;2023-10-08T00:14:07;5.37;;;3.00;;
12812;SDS011;6471;50.932;6.934;2023-10-08T00:16:42;4.07;;;2.87;;
12812;SDS011;6471;50.932;6.934;2023-10-08T00:19:14;3.93;;;2.60;;
12812;SDS011;6471;50.932;6.934;2023-10-08T00:21:42;5.47;;;3.10;;
12812;SDS011;6471;50.932;6.934;2023-10-08T00:24:10;4.00;;;2.73;;
12812;SDS011;6471;50.932;6.934;2023-10-08T00:26:37;5.33;;;2.73;;
12812;SDS011;6471;50.932;6.934;2023-10-08T00:29:07;3.87;;;2.77;;
12812;SDS011;6471;50.932;6.934;2023-10-08T00:31:46;4.80;;;2.97;;
12812;SDS011;6471;50.932;6.934;2023-10-08T00:34:14;4.60;;;2.97;;
12812;SDS011;6471;50.932;6.934;2023-10-08T00:36:41;5.00;;;2.87;;
12812;SDS011;6471;50.932;6.934;2023-10-08T00:39:08;6.87;;;2.83;;
12812;SDS011;6471;50.932;6.934;2023-10-08T00:41:47;4.77;;;2.77;;
12812;SDS011;6471;50.932;6.934;2023-10-08T00:44:23;4.70;;;2.87;;
12812;SDS011;6471;50.932;6.934;2023-10-08T00:46:54;5.43;;;2.80;;
12812;SDS011;6471;50.932;6.934;2023-10-08T00:49:24;7.60;;;3.83;;
12812;SDS011;6471;50.932;6.934;2023-10-08T00:52:03;5.60;;;3.00;;
12812;SDS011;6471;50.932;6.934;2023-10-08T00:54:32;5.67;;;3.00;;
12812;SDS011;6471;50.932;6.934;2023-10-08T00:56:59;4.73;;;2.67;;
12812;SDS011;6471;50.932;6.934;2023-10-08T00:59:33;4.30;;;2.80;;
12812;SDS011;6471;50.932;6.934;2023-10-08T01:02:09;5.23;;;2.93;;
12812;SDS011;6471;50.932;6.934;2023-10-08T01:04:39;4.57;;;3.00;;
12812;SDS011;6471;50.932;6.934;2023-10-08T01:07:08;4.53;;;2.50;;
12812;SDS011;6471;50.932;6.934;2023-10-08T01:09:37;5.17;;;3.10;;
12812;SDS011;6471;50.932;6.934;2023-10-08T01:14:37;4.80;;;3.40;;
12812;SDS011;6471;50.932;6.934;2023-10-08T01:17:07;5.27;;;3.13;;
12812;SDS011;6471;50.932;6.934;2023-10-08T01:19:33;6.60;;;3.30;;
12812;SDS011;6471;50.932;6.934;2023-10-08T01:22:06;4.40;;;2.60;;
12812;SDS011;6471;50.932;6.934;2023-10-08T01:24:38;7.37;;;3.37;;
12812;SDS011;6471;50.932;6.934;2023-10-08T01:27:05;4.87;;;2.87;;
12812;SDS011;6471;50.932;6.934;2023-10-08T01:29:36;4.83;;;3.00;;
12812;SDS011;6471;50.932;6.934;2023-10-08T01:32:02;4.57;;;2.87;;
12812;SDS011;6471;50.932;6.934;2023-10-08T01:34:34;4.60;;;3.00;;
12812;SDS011;6471;50.932;6.934;2023-10-08T01:37:04;4.80;;;3.10;;
12812;SDS011;6471;50.932;6.934;2023-10-08T01:39:36;4.00;;;2.87;;
12812;SDS011;6471;50.932;6.934;2023-10-08T01:42:07;4.90;;;2.93;;
12812;SDS011;6471;50.932;6.934;2023-10-08T01:44:40;4.83;;;2.93;;
12812;SDS011;6471;50.932;6.934;2023-10-08T01:47:07;3.83;;;2.30;;
12812;SDS011;6471;50.932;6.934;2023-10-08T01:49:36;4.90;;;2.93;;
12812;SDS011;6471;50.932;6.934;2023-10-08T01:52:04;6.53;;;3.33;;
12812;SDS011;6471;50.932;6.934;2023-10-08T01:54:34;5.77;;;3.40;;
12812;SDS011;6471;50.932;6.934;2023-10-08T01:57:01;4.73;;;3.03;;
12812;SDS011;6471;50.932;6.934;2023-10-08T01:59:30;4.50;;;2.80;;
12812;SDS011;6471;50.932;6.934;2023-10-08T02:01:57;8.10;;;2.87;;
12812;SDS011;6471;50.932;6.934;2023-10-08T02:04:24;5.63;;;2.73;;
12812;SDS011;6471;50.932;6.934;2023-10-08T02:06:50;4.80;;;2.70;;
12812;SDS011;6471;50.932;6.934;2023-10-08T02:09:16;4.93;;;3.00;;
12812;SDS011;6471;50.932;6.934;2023-10-08T02:11:48;4.77;;;2.80;;
12812;SDS011;6471;50.932;6.934;2023-10-08T02:14:18;4.17;;;3.00;;
12812;SDS011;6471;50.932;6.934;2023-10-08T02:16:45;4.63;;;2.90;;
12812;SDS011;6471;50.932;6.934;2023-10-08T02:19:11;3.93;;;2.83;;
12812;SDS011;6471;50.932;6.934;2023-10-08T02:21:38;3.90;;;2.50;;
12812;SDS011;6471;50.932;6.934;2023-10-08T02:24:05;4.07;;;2.60;;
12812;SDS011;6471;50.932;6.934;2023-10-08T02:26:32;4.37;;;2.63;;
12812;SDS011;6471;50.932;6.934;2023-10-08T02:28:59;3.53;;;2.57;;
12812;SDS011;6471;50.932;6.934;2023-10-08T02:31:25;6.10;;;3.20;;
12812;SDS011;6471;50.932;6.934;2023-10-08T02:33:52;3.73;;;2.70;;
12812;SDS011;6471;50.932;6.934;2023-10-08T02:36:19;3.80;;;2.67;;
12812;SDS011;6471;50.932;6.934;2023-10-08T02:38:45;5.30;;;2.80;;
12812;SDS011;6471;50.932;6.934;2023-10-08T02:41:20;3.67;;;2.70;;
12812;SDS011;6471;50.932;6.934;2023-10-08T02:43:49;4.77;;;2.83;;
12812;SDS011;6471;50.932;6.934;2023-10-08T02:46:15;4.03;;;2.80;;
12812;SDS011;6471;50.932;6.934;2023-10-08T02:48:43;3.57;;;2.40;;
12812;SDS011;6471;50.932;6.934;2023-10-08T02:51:09;3.17;;;2.43;;
12812;SDS011;6471;50.932;6.934;2023-10-08T02:53:41;7.27;;;3.00;;
12812;SDS011;6471;50.932;6.934;2023-10-08T02:56:08;4.37;;;2.70;;
12812;SDS011;6471;50.932;6.934;2023-10-08T02:58:41;4.07;;;2.70;;
12812;SDS011;6471;50.932;6.934;2023-10-08T03:01:09;3.90;;;2.63;;
12812;SDS011;6471;50.932;6.934;2023-10-08T03:03:37;3.03;;;2.33;;
12812;SDS011;6471;50.932;6.934;2023-10-08T03:06:04;3.20;;;2.30;;
12812;SDS011;6471;50.932;6.934;2023-10-08T03:08:33;4.23;;;2.57;;
12812;SDS011;6471;50.932;6.934;2023-10-08T03:11:01;3.07;;;2.30;;
12812;SDS011;6471;50.932;6.934;2023-10-08T03:13:28;3.77;;;2.37;;
12812;SDS011;6471;50.932;6.934;2023-10-08T03:15:55;3.20;;;2.07;;
12812;SDS011;6471;50.932;6.934;2023-10-08T03:18:21;3.87;;;2.30;;
12812;SDS011;6471;50.932;6.934;2023-10-08T03:20:47;3.23;;;2.20;;
12812;SDS011;6471;50.932;6.934;2023-10-08T03:23:14;2.87;;;2.00;;
12812;SDS011;6471;50.932;6.934;2023-10-08T03:25:58;3.60;;;2.20;;
12812;SDS011;6471;50.932;6.934;2023-10-08T03:28:29;4.43;;;2.40;;
12812;SDS011;6471;50.932;6.934;2023-10-08T03:30:59;4.87;;;2.97;;
12812;SDS011;6471;50.932;6.934;2023-10-08T03:33:33;3.53;;;2.50;;
12812;SDS011;6471;50.932;6.934;2023-10-08T03:36:00;4.47;;;2.63;;
12812;SDS011;6471;50.932;6.934;2023-10-08T03:38:34;3.33;;;2.20;;
12812;SDS011;6471;50.932;6.934;2023-10-08T03:41:22;3.40;;;2.47;;
12812;SDS011;6471;50.932;6.934;2023-10-08T03:43:54;4.80;;;2.40;;
12812;SDS011;6471;50.932;6.934;2023-10-08T03:46:26;2.67;;;2.10;;
12812;SDS011;6471;50.932;6.934;2023-10-08T03:48:52;2.70;;;1.90;;
12812;SDS011;6471;50.932;6.934;2023-10-08T03:51:21;3.03;;;2.30;;
12812;SDS011;6471;50.932;6.934;2023-10-08T03:53:47;3.80;;;2.23;;
12812;SDS011;6471;50.932;6.934;2023-10-08T03:56:26;3.40;;;2.10;;
12812;SDS011;6471;50.932;6.934;2023-10-08T03:58:56;2.97;;;2.20;;
12812;SDS011;6471;50.932;6.934;2023-10-08T04:01:25;3.90;;;2.30;;
12812;SDS011;6471;50.932;6.934;2023-10-08T04:03:56;4.03;;;2.60;;
12812;SDS011;6471;50.932;6.934;2023-10-08T04:06:23;4.20;;;3.10;;
12812;SDS011;6471;50.932;6.934;2023-10-08T04:08:59;6.30;;;3.17;;
12812;SDS011;6471;50.932;6.934;2023-10-08T04:11:46;5.37;;;2.83;;
12812;SDS011;6471;50.932;6.934;2023-10-08T04:14:12;3.83;;;2.30;;
12812;SDS011;6471;50.932;6.934;2023-10-08T04:16:41;2.57;;;2.10;;
12812;SDS011;6471;50.932;6.934;2023-10-08T04:19:07;3.97;;;2.53;;
12812;SDS011;6471;50.932;6.934;2023-10-08T04:21:33;3.53;;;2.40;;
12812;SDS011;6471;50.932;6.934;2023-10-08T04:24:00;4.40;;;2.83;;
12812;SDS011;6471;50.932;6.934;2023-10-08T04:26:28;5.20;;;2.47;;
12812;SDS011;6471;50.932;6.934;2023-10-08T04:28:56;4.53;;;2.53;;
12812;SDS011;6471;50.932;6.934;2023-10-08T04:31:23;4.80;;;2.57;;
12812;SDS011;6471;50.932;6.934;2023-10-08T04:33:52;5.50;;;2.80;;
12812;SDS011;6471;50.932;6.934;2023-10-08T04:36:19;4.77;;;2.90;;
12812;SDS011;6471;50.932;6.934;2023-10-08T04:38:45;4.83;;;2.80;;
12812;SDS011;6471;50.932;6.934;2023-10-08T04:41:19;4.23;;;2.80;;
12812;SDS011;6471;50.932;6.934;2023-10-08T04:43:52;3.63;;;2.80;;
12812;SDS011;6471;50.932;6.934;2023-10-08T04:46:20;4.73;;;2.73;;
12812;SDS011;6471;50.932;6.934;2023-10-08T04:49:12;4.23;;;2.73;;
12812;SDS011;6471;50.932;6.934;2023-10-08T04:51:57;4.40;;;2.60;;
12812;SDS011;6471;50.932;6.934;2023-10-08T04:54:26;4.83;;;2.50;;
12812;SDS011;6471;50.932;6.934;2023-10-08T04:57:04;4.97;;;3.00;;
12812;SDS011;6471;50.932;6.934;2023-10-08T04:59:32;5.10;;;2.90;;
12812;SDS011;6471;50.932;6.934;2023-10-08T05:02:02;6.33;;;3.30;;
12812;SDS011;6471;50.932;6.934;2023-10-08T05:04:44;7.13;;;3.60;;
12812;SDS011;6471;50.932;6.934;2023-10-08T05:07:22;6.17;;;3.50;;
12812;SDS011;6471;50.932;6.934;2023-10-08T05:09:51;4.17;;;2.73;;
12812;SDS011;6471;50.932;6.934;2023-10-08T05:12:37;5.33;;;3.40;;
12812;SDS011;6471;50.932;6.934;2023-10-08T05:15:12;4.00;;;2.60;;
12812;SDS011;6471;50.932;6.934;2023-10-08T05:17:41;4.23;;;2.60;;
12812;SDS011;6471;50.932;6.934;2023-10-08T05:20:20;3.93;;;2.77;;
12812;SDS011;6471;50.932;6.934;2023-10-08T05:23:23;5.03;;;3.10;;
12812;SDS011;6471;50.932;6.934;2023-10-08T05:25:50;4.40;;;2.73;;
12812;SDS011;6471;50.932;6.934;2023-10-08T05:28:34;4.10;;;2.50;;
12812;SDS011;6471;50.932;6.934;2023-10-08T05:31:08;4.23;;;2.77;;
12812;SDS011;6471;50.932;6.934;2023-10-08T05:33:40;5.70;;;2.90;;
12812;SDS011;6471;50.932;6.934;2023-10-08T05:36:35;5.20;;;3.10;;
12812;SDS011;6471;50.932;6.934;2023-10-08T05:39:18;5.27;;;3.10;;
12812;SDS011;6471;50.932;6.934;2023-10-08T05:41:54;4.80;;;2.90;;
12812;SDS011;6471;50.932;6.934;2023-10-08T05:44:38;4.93;;;2.90;;
12812;SDS011;6471;50.932;6.934;2023-10-08T05:47:05;5.53;;;3.13;;
12812;SDS011;6471;50.932;6.934;2023-10-08T05:49:37;5.30;;;2.80;;
12812;SDS011;6471;50.932;6.934;2023-10-08T05:52:07;5.13;;;2.87;;
12812;SDS011;6471;50.932;6.934;2023-10-08T05:54:49;4.67;;;2.60;;
12812;SDS011;6471;50.932;6.934;2023-10-08T05:57:55;4.27;;;2.90;;
12812;SDS011;6471;50.932;6.934;2023-10-08T06:00:49;6.00;;;3.20;;
12812;SDS011;6471;50.932;6.934;2023-10-08T06:03:15;4.47;;;2.97;;
12812;SDS011;6471;50.932;6.934;2023-10-08T06:06:15;6.70;;;2.77;;
12812;SDS011;6471;50.932;6.934;2023-10-08T06:08:41;3.47;;;2.40;;
12812;SDS011;6471;50.932;6.934;2023-10-08T06:11:29;4.23;;;2.77;;
12812;SDS011;6471;50.932;6.934;2023-10-08T06:14:21;3.57;;;2.40;;
12812;SDS011;6471;50.932;6.934;2023-10-08T06:17:13;4.43;;;2.80;;
12812;SDS011;6471;50.932;6.934;2023-10-08T06:19:51;3.67;;;2.50;;
12812;SDS011;6471;50.932;6.934;2023-10-08T06:22:18;3.03;;;2.10;;
12812;SDS011;6471;50.932;6.934;2023-10-08T06:24:48;3.90;;;2.40;;
12812;SDS011;6471;50.932;6.934;2023-10-08T06:27:14;3.40;;;2.47;;
12812;SDS011;6471;50.932;6.934;2023-10-08T06:29:42;3.73;;;2.43;;
12812;SDS011;6471;50.932;6.934;2023-10-08T06:32:09;3.90;;;2.40;;
12812;SDS011;6471;50.932;6.934;2023-10-08T06:34:37;3.23;;;2.27;;
12812;SDS011;6471;50.932;6.934;2023-10-08T06:37:05;3.80;;;2.10;;
12812;SDS011;6471;50.932;6.934;2023-10-08T06:39:33;4.20;;;2.23;;
12812;SDS011;6471;50.932;6.934;2023-10-08T06:42:12;4.10;;;2.20;;
12812;SDS011;6471;50.932;6.934;2023-10-08T06:44:39;3.60;;;2.30;;
12812;SDS011;6471;50.932;6.934;2023-10-08T06:47:08;3.07;;;2.10;;
12812;SDS011;6471;50.932;6.934;2023-10-08T06:49:34;4.23;;;2.30;;
12812;SDS011;6471;50.932;6.934;2023-10-08T06:52:01;4.03;;;2.53;;
12812;SDS011;6471;50.932;6.934;2023-10-08T06:54:29;4.13;;;2.10;;
12812;SDS011;6471;50.932;6.934;2023-10-08T06:56:55;4.13;;;2.37;;
12812;SDS011;6471;50.932;6.934;2023-10-08T06:59:22;3.70;;;2.00;;
12812;SDS011;6471;50.932;6.934;2023-10-08T07:01:48;4.83;;;2.40;;
12812;SDS011;6471;50.932;6.934;2023-10-08T07:04:16;3.80;;;2.27;;
12812;SDS011;6471;50.932;6.934;2023-10-08T07:06:44;4.23;;;2.70;;
12812;SDS011;6471;50.932;6.934;2023-10-08T07:09:11;4.40;;;2.60;;
12812;SDS011;6471;50.932;6.934;2023-10-08T07:11:53;4.13;;;2.30;;
12812;SDS011;6471;50.932;6.934;2023-10-08T07:14:26;3.57;;;2.27;;
12812;SDS011;6471;50.932;6.934;2023-10-08T07:16:54;3.30;;;2.50;;
12812;SDS011;6471;50.932;6.934;2023-10-08T07:19:23;2.63;;;2.17;;
12812;SDS011;6471;50.932;6.934;2023-10-08T07:21:57;3.47;;;2.30;;
12812;SDS011;6471;50.932;6.934;2023-10-08T07:24:29;2.73;;;1.97;;
12812;SDS011;6471;50.932;6.934;2023-10-08T07:26:59;3.20;;;2.03;;
12812;SDS011;6471;50.932;6.934;2023-10-08T07:29:27;3.40;;;2.00;;
12812;SDS011;6471;50.932;6.934;2023-10-08T07:31:53;4.30;;;2.37;;
12812;SDS011;6471;50.932;6.934;2023-10-08T07:34:20;3.07;;;2.13;;
12812;SDS011;6471;50.932;6.934;2023-10-08T07:36:49;2.80;;;2.10;;
12812;SDS011;6471;50.932;6.934;2023-10-08T07:39:16;2.70;;;2.03;;
12812;SDS011;6471;50.932;6.934;2023-10-08T07:41:51;2.73;;;2.00;;
12812;SDS011;6471;50.932;6.934;2023-10-08T07:44:18;2.43;;;1.87;;
12812;SDS011;6471;50.932;6.934;2023-10-08T07:46:47;2.53;;;2.03;;
12812;SDS011;6471;50.932;6.934;2023-10-08T07:49:13;6.27;;;3.00;;
12812;SDS011;6471;50.932;6.934;2023-10-08T07:51:39;4.90;;;2.63;;
12812;SDS011;6471;50.932;6.934;2023-10-08T07:54:06;4.63;;;2.80;;
12812;SDS011;6471;50.932;6.934;2023-10-08T07:56:35;3.57;;;2.70;;
12812;SDS011;6471;50.932;6.934;2023-10-08T07:59:02;4.00;;;2.70;;
12812;SDS011;6471;50.932;6.934;2023-10-08T08:01:36;4.00;;;2.87;;
12812;SDS011;6471;50.932;6.934;2023-10-08T08:04:02;3.37;;;2.30;;
12812;SDS011;6471;50.932;6.934;2023-10-08T08:06:28;4.57;;;2.30;;
12812;SDS011;6471;50.932;6.934;2023-10-08T08:08:56;3.17;;;2.10;;
12812;SDS011;6471;50.932;6.934;2023-10-08T08:11:22;3.50;;;2.10;;
12812;SDS011;6471;50.932;6.934;2023-10-08T08:13:51;6.40;;;3.10;;
12812;SDS011;6471;50.932;6.934;2023-10-08T08:16:17;4.70;;;3.00;;
12812;SDS011;6471;50.932;6.934;2023-10-08T08:18:46;7.33;;;3.50;;
12812;SDS011;6471;50.932;6.934;2023-10-08T08:21:13;6.93;;;3.73;;
12812;SDS011;6471;50.932;6.934;2023-10-08T08:23:47;6.70;;;3.63;;
12812;SDS011;6471;50.932;6.934;2023-10-08T08:26:16;5.77;;;3.10;;
12812;SDS011;6471;50.932;6.934;2023-10-08T08:28:55;6.77;;;3.40;;
12812;SDS011;6471;50.932;6.934;2023-10-08T08:31:22;7.73;;;3.70;;
12812;SDS011;6471;50.932;6.934;2023-10-08T08:33:49;5.90;;;3.30;;
12812;SDS011;6471;50.932;6.934;2023-10-08T08:36:21;7.00;;;3.50;;
12812;SDS011;6471;50.932;6.934;2023-10-08T08:38:50;5.90;;;3.40;;
12812;SDS011;6471;50.932;6.934;2023-10-08T08:41:17;6.30;;;3.93;;
12812;SDS011;6471;50.932;6.934;2023-10-08T08:43:44;6.03;;;3.50;;
12812;SDS011;6471;50.932;6.934;2023-10-08T08:46:10;5.20;;;3.23;;
12812;SDS011;6471;50.932;6.934;2023-10-08T08:48:40;5.67;;;3.03;;
12812;SDS011;6471;50.932;6.934;2023-10-08T08:51:07;4.57;;;3.00;;
12812;SDS011;6471;50.932;6.934;2023-10-08T08:53:35;4.20;;;2.93;;
12812;SDS011;6471;50.932;6.934;2023-10-08T08:56:01;7.40;;;3.90;;
12812;SDS011;6471;50.932;6.934;2023-10-08T08:58:33;6.13;;;3.30;;
12812;SDS011;6471;50.932;6.934;2023-10-08T09:01:00;9.03;;;4.40;;
12812;SDS011;6471;50.932;6.934;2023-10-08T09:03:28;7.07;;;4.30;;
12812;SDS011;6471;50.932;6.934;2023-10-08T09:05:58;7.00;;;3.87;;
12812;SDS011;6471;50.932;6.934;2023-10-08T09:08:34;7.13;;;3.80;;
12812;SDS011;6471;50.932;6.934;2023-10-08T09:11:01;5.03;;;3.30;;
12812;SDS011;6471;50.932;6.934;2023-10-08T09:13:29;6.13;;;3.10;;
12812;SDS011;6471;50.932;6.934;2023-10-08T09:16:15;5.13;;;3.33;;
12812;SDS011;6471;50.932;6.934;2023-10-08T09:18:44;7.67;;;4.17;;
12812;SDS011;6471;50.932;6.934;2023-10-08T09:21:11;6.23;;;3.13;;
12812;SDS011;6471;50.932;6.934;2023-10-08T09:23:39;6.80;;;3.70;;
12812;SDS011;6471;50.932;6.934;2023-10-08T09:26:09;7.03;;;3.67;;
12812;SDS011;6471;50.932;6.934;2023-10-08T09:28:36;7.67;;;3.93;;
12812;SDS011;6471;50.932;6.934;2023-10-08T09:31:09;11.03;;;4.80;;
12812;SDS011;6471;50.932;6.934;2023-10-08T09:33:36;15.30;;;5.30;;
12812;SDS011;6471;50.932;6.934;2023-10-08T09:36:03;10.80;;;4.83;;
12812;SDS011;6471;50.932;6.934;2023-10-08T09:38:30;8.33;;;4.33;;
12812;SDS011;6471;50.932;6.934;2023-10-08T09:40:57;9.43;;;3.87;;
12812;SDS011;6471;50.932;6.934;2023-10-08T09:43:29;9.17;;;3.80;;
12812;SDS011;6471;50.932;6.934;2023-10-08T09:46:00;8.70;;;4.50;;
12812;SDS011;6471;50.932;6.934;2023-10-08T09:48:30;14.07;;;5.10;;
12812;SDS011;6471;50.932;6.934;2023-10-08T09:50:57;10.00;;;4.37;;
12812;SDS011;6471;50.932;6.934;2023-10-08T09:53:29;8.43;;;4.53;;
12812;SDS011;6471;50.932;6.934;2023-10-08T09:55:57;7.87;;;4.20;;
12812;SDS011;6471;50.932;6.934;2023-10-08T09:58:24;6.60;;;3.40;;
12812;SDS011;6471;50.932;6.934;2023-10-08T10:00:52;9.10;;;3.70;;
12812;SDS011;6471;50.932;6.934;2023-10-08T10:03:19;10.03;;;4.13;;
12812;SDS011;6471;50.932;6.934;2023-10-08T10:05:51;5.83;;;3.70;;
12812;SDS011;6471;50.932;6.934;2023-10-08T10:08:23;6.93;;;3.70;;
12812;SDS011;6471;50.932;6.934;2023-10-08T10:10:56;7.80;;;3.90;;
12812;SDS011;6471;50.932;6.934;2023-10-08T10:13:25;13.23;;;4.93;;
12812;SDS011;6471;50.932;6.934;2023-10-08T10:15:53;10.13;;;4.63;;
12812;SDS011;6471;50.932;6.934;2023-10-08T10:20:56;12.90;;;5.57;;
12812;SDS011;6471;50.932;6.934;2023-10-08T10:23:36;9.90;;;5.07;;
12812;SDS011;6471;50.932;6.934;2023-10-08T10:26:03;10.97;;;4.50;;
12812;SDS011;6471;50.932;6.934;2023-10-08T10:28:29;7.20;;;3.57;;
12812;SDS011;6471;50.932;6.934;2023-10-08T10:30:55;8.17;;;3.87;;
12812;SDS011;6471;50.932;6.934;2023-10-08T10:33:29;6.07;;;3.87;;
12812;SDS011;6471;50.932;6.934;2023-10-08T10:35:56;6.40;;;3.90;;
12812;SDS011;6471;50.932;6.934;2023-10-08T10:38:22;5.70;;;3.80;;
12812;SDS011;6471;50.932;6.934;2023-10-08T10:40:51;4.83;;;3.20;;
12812;SDS011;6471;50.932;6.934;2023-10-08T10:43:26;6.47;;;3.53;;
12812;SDS011;6471;50.932;6.934;2023-10-08T10:45:58;3.70;;;3.00;;
12812;SDS011;6471;50.932;6.934;2023-10-08T10:48:25;5.07;;;3.10;;
12812;SDS011;6471;50.932;6.934;2023-10-08T10:50:59;5.37;;;3.40;;
12812;SDS011;6471;50.932;6.934;2023-10-08T10:53:40;6.67;;;3.70;;
12812;SDS011;6471;50.932;6.934;2023-10-08T10:56:13;5.43;;;3.33;;
12812;SDS011;6471;50.932;6.934;2023-10-08T10:58:58;5.30;;;3.33;;
12812;SDS011;6471;50.932;6.934;2023-10-08T11:01:28;5.63;;;3.50;;
12812;SDS011;6471;50.932;6.934;2023-10-08T11:04:09;10.10;;;4.83;;
12812;SDS011;6471;50.932;6.934;2023-10-08T11:06:40;5.83;;;4.13;;
12812;SDS011;6471;50.932;6.934;2023-10-08T11:09:06;7.20;;;3.87;;
12812;SDS011;6471;50.932;6.934;2023-10-08T11:11:39;5.47;;;3.90;;
12812;SDS011;6471;50.932;6.934;2023-10-08T11:14:10;6.33;;;3.50;;
12812;SDS011;6471;50.932;6.934;2023-10-08T11:16:42;7.03;;;3.60;;
12812;SDS011;6471;50.932;6.934;2023-10-08T11:19:08;5.77;;;3.63;;
12812;SDS011;6471;50.932;6.934;2023-10-08T11:24:29;6.93;;;4.10;;
12812;SDS011;6471;50.932;6.934;2023-10-08T11:26:58;7.37;;;4.00;;
12812;SDS011;6471;50.932;6.934;2023-10-08T11:29:43;5.50;;;3.60;;
12812;SDS011;6471;50.932;6.934;2023-10-08T11:32:11;6.50;;;3.77;;
12812;SDS011;6471;50.932;6.934;2023-10-08T11:34:54;4.47;;;3.03;;
12812;SDS011;6471;50.932;6.934;2023-10-08T11:37:29;4.53;;;3.23;;
12812;SDS011;6471;50.932;6.934;2023-10-08T11:39:58;8.47;;;4.03;;
12812;SDS011;6471;50.932;6.934;2023-10-08T11:42:25;6.70;;;3.90;;
12812;SDS011;6471;50.932;6.934;2023-10-08T11:44:57;9.27;;;4.60;;
12812;SDS011;6471;50.932;6.934;2023-10-08T11:47:42;9.50;;;4.60;;
12812;SDS011;6471;50.932;6.934;2023-10-08T11:50:10;8.40;;;4.90;;
12812;SDS011;6471;50.932;6.934;2023-10-08T11:52:36;7.30;;;4.50;;
12812;SDS011;6471;50.932;6.934;2023-10-08T11:55:07;7.63;;;4.07;;
12812;SDS011;6471;50.932;6.934;2023-10-08T11:57:34;6.17;;;4.03;;
12812;SDS011;6471;50.932;6.934;2023-10-08T12:00:04;8.07;;;4.27;;
12812;SDS011;6471;50.932;6.934;2023-10-08T12:02:43;7.53;;;4.33;;
12812;SDS011;6471;50.932;6.934;2023-10-08T12:05:10;7.07;;;4.50;;
12812;SDS011;6471;50.932;6.934;2023-10-08T12:07:44;6.57;;;4.67;;
12812;SDS011;6471;50.932;6.934;2023-10-08T12:10:10;6.23;;;4.03;;
12812;SDS011;6471;50.932;6.934;2023-10-08T12:12:36;7.40;;;4.53;;
12812;SDS011;6471;50.932;6.934;2023-10-08T12:15:03;6.77;;;4.47;;
12812;SDS011;6471;50.932;6.934;2023-10-08T12:17:32;8.20;;;4.77;;
12812;SDS011;6471;50.932;6.934;2023-10-08T12:20:05;8.40;;;5.60;;
12812;SDS011;6471;50.932;6.934;2023-10-08T12:22:51;10.90;;;6.57;;
12812;SDS011;6471;50.932;6.934;2023-10-08T12:25:17;10.27;;;6.47;;
12812;SDS011;6471;50.932;6.934;2023-10-08T12:27:43;9.13;;;6.07;;
12812;SDS011;6471;50.932;6.934;2023-10-08T12:30:09;8.30;;;5.83;;
12812;SDS011;6471;50.932;6.934;2023-10-08T12:32:36;9.40;;;6.20;;
12812;SDS011;6471;50.932;6.934;2023-10-08T12:35:07;9.90;;;6.10;;
12812;SDS011;6471;50.932;6.934;2023-10-08T12:37:37;9.17;;;5.30;;
12812;SDS011;6471;50.932;6.934;2023-10-08T12:40:04;10.47;;;6.10;;
12812;SDS011;6471;50.932;6.934;2023-10-08T12:42:38;12.03;;;7.13;;
12812;SDS011;6471;50.932;6.934;2023-10-08T12:45:04;10.60;;;6.57;;
12812;SDS011;6471;50.932;6.934;2023-10-08T12:47:37;8.10;;;5.73;;
12812;SDS011;6471;50.932;6.934;2023-10-08T12:50:04;8.93;;;5.77;;
12812;SDS011;6471;50.932;6.934;2023-10-08T12:52:33;10.97;;;5.60;;
12812;SDS011;6471;50.932;6.934;2023-10-08T12:55:07;7.27;;;5.20;;
12812;SDS011;6471;50.932;6.934;2023-10-08T12:57:34;7.10;;;4.73;;
12812;SDS011;6471;50.932;6.934;2023-10-08T13:00:02;6.33;;;4.60;;
12812;SDS011;6471;50.932;6.934;2023-10-08T13:02:29;6.00;;;4.80;;
12812;SDS011;6471;50.932;6.934;2023-10-08T13:04:55;5.47;;;4.37;;
12812;SDS011;6471;50.932;6.934;2023-10-08T13:07:24;7.87;;;4.83;;
12812;SDS011;6471;50.932;6.934;2023-10-08T13:09:51;6.80;;;4.73;;
12812;SDS011;6471;50.932;6.934;2023-10-08T13:12:18;6.70;;;4.27;;
12812;SDS011;6471;50.932;6.934;2023-10-08T13:14:44;6.57;;;4.53;;
12812;SDS011;6471;50.932;6.934;2023-10-08T13:17:10;5.73;;;4.50;;
12812;SDS011;6471;50.932;6.934;2023-10-08T13:19:37;6.80;;;4.70;;
12812;SDS011;6471;50.932;6.934;2023-10-08T13:22:06;9.57;;;5.03;;
12812;SDS011;6471;50.932;6.934;2023-10-08T13:24:32;9.83;;;5.57;;
12812;SDS011;6471;50.932;6.934;2023-10-08T13:27:00;11.83;;;7.10;;
12812;SDS011;6471;50.932;6.934;2023-10-08T13:29:26;8.23;;;5.90;;
12812;SDS011;6471;50.932;6.934;2023-10-08T13:31:57;8.47;;;5.67;;
12812;SDS011;6471;50.932;6.934;2023-10-08T13:34:23;8.10;;;5.47;;
12812;SDS011;6471;50.932;6.934;2023-10-08T13:36:51;8.30;;;5.60;;
12812;SDS011;6471;50.932;6.934;2023-10-08T13:39:17;6.93;;;4.93;;
12812;SDS011;6471;50.932;6.934;2023-10-08T13:41:44;8.63;;;5.53;;
12812;SDS011;6471;50.932;6.934;2023-10-08T13:44:14;8.13;;;4.77;;
12812;SDS011;6471;50.932;6.934;2023-10-08T13:46:40;6.07;;;4.33;;
12812;SDS011;6471;50.932;6.934;2023-10-08T13:49:13;6.23;;;4.30;;
12812;SDS011;6471;50.932;6.934;2023-10-08T13:51:41;6.07;;;4.27;;
12812;SDS011;6471;50.932;6.934;2023-10-08T13:54:09;6.57;;;4.03;;
12812;SDS011;6471;50.932;6.934;2023-10-08T13:56:39;4.90;;;4.13;;
12812;SDS011;6471;50.932;6.934;2023-10-08T13:59:12;4.27;;;3.70;;
12812;SDS011;6471;50.932;6.934;2023-10-08T14:01:39;4.63;;;3.40;;
12812;SDS011;6471;50.932;6.934;2023-10-08T14:04:08;5.63;;;4.00;;
12812;SDS011;6471;50.932;6.934;2023-10-08T14:06:34;6.03;;;4.20;;
12812;SDS011;6471;50.932;6.934;2023-10-08T14:09:02;6.73;;;4.60;;
12812;SDS011;6471;50.932;6.934;2023-10-08T14:11:32;6.43;;;4.50;;
12812;SDS011;6471;50.932;6.934;2023-10-08T14:13:59;5.37;;;3.63;;
12812;SDS011;6471;50.932;6.934;2023-10-08T14:16:28;5.93;;;4.10;;
12812;SDS011;6471;50.932;6.934;2023-10-08T14:18:57;7.23;;;4.70;;
12812;SDS011;6471;50.932;6.934;2023-10-08T14:21:25;6.80;;;4.83;;
12812;SDS011;6471;50.932;6.934;2023-10-08T14:23:58;6.20;;;4.33;;
12812;SDS011;6471;50.932;6.934;2023-10-08T14:26:28;5.90;;;4.80;;
12812;SDS011;6471;50.932;6.934;2023-10-08T14:29:00;6.63;;;4.63;;
12812;SDS011;6471;50.932;6.934;2023-10-08T14:31:33;5.57;;;4.23;;
12812;SDS011;6471;50.932;6.934;2023-10-08T14:34:03;6.93;;;4.00;;
12812;SDS011;6471;50.932;6.934;2023-10-08T14:36:44;5.93;;;4.00;;
12812;SDS011;6471;50.932;6.934;2023-10-08T14:39:30;6.50;;;4.17;;
12812;SDS011;6471;50.932;6.934;2023-10-08T14:42:15;7.10;;;5.47;;
12812;SDS011;6471;50.932;6.934;2023-10-08T14:45:00;10.13;;;6.37;;
12812;SDS011;6471;50.932;6.934;2023-10-08T14:47:26;12.63;;;7.23;;
12812;SDS011;6471;50.932;6.934;2023-10-08T14:49:52;14.33;;;8.10;;
12812;SDS011;6471;50.932;6.934;2023-10-08T14:52:18;13.33;;;8.03;;
12812;SDS011;6471;50.932;6.934;2023-10-08T14:54:45;14.67;;;8.27;;
12812;SDS011;6471;50.932;6.934;2023-10-08T14:57:14;13.27;;;7.70;;
12812;SDS011;6471;50.932;6.934;2023-10-08T14:59:41;13.57;;;7.53;;
12812;SDS011;6471;50.932;6.934;2023-10-08T15:02:07;17.13;;;8.83;;
12812;SDS011;6471;50.932;6.934;2023-10-08T15:04:35;17.73;;;8.83;;
12812;SDS011;6471;50.932;6.934;2023-10-08T15:07:04;17.60;;;8.30;;
12812;SDS011;6471;50.932;6.934;2023-10-08T15:09:33;17.33;;;8.13;;
12812;SDS011;6471;50.932;6.934;2023-10-08T15:11:59;11.97;;;7.10;;
12812;SDS011;6471;50.932;6.934;2023-10-08T15:14:26;11.70;;;7.07;;
12812;SDS011;6471;50.932;6.934;2023-10-08T15:16:53;14.60;;;8.23;;
12812;SDS011;6471;50.932;6.934;2023-10-08T15:19:20;14.40;;;7.53;;
12812;SDS011;6471;50.932;6.934;2023-10-08T15:21:47;13.00;;;7.03;;
12812;SDS011;6471;50.932;6.934;2023-10-08T15:24:19;16.43;;;8.80;;
12812;SDS011;6471;50.932;6.934;2023-10-08T15:26:52;21.10;;;12.40;;
12812;SDS011;6471;50.932;6.934;2023-10-08T15:29:19;20.07;;;11.80;;